createdAt,value
2019-04-21T00:01:05.048Z,51.86
2019-04-21T00:03:37.835Z,52.05
2019-04-21T00:06:18.696Z,52.16
2019-04-21T00:08:44.145Z,52.26
2019-04-21T00:13:32.603Z,52.28
2019-04-21T00:15:53.883Z,52.59
2019-04-21T00:18:40.687Z,52.85
2019-04-21T00:21:08.238Z,52.91
2019-04-21T00:23:41.138Z,53.04
2019-04-21T00:26:04.023Z,53.23
2019-04-21T00:28:42.841Z,53.09
2019-04-21T00:31:06.481Z,53.66
2019-04-21T00:33:24.403Z,54.00
2019-04-21T00:35:52.608Z,54.37
2019-04-21T00:38:34.592Z,53.93
2019-04-21T00:41:00.343Z,54.05
2019-04-21T00:43:26.563Z,53.78
2019-04-21T00:45:48.185Z,54.07
2019-04-21T00:48:29.863Z,54.50
2019-04-21T00:51:11.046Z,54.86
2019-04-21T00:53:35.756Z,55.69
2019-04-21T00:56:03.507Z,56.41
2019-04-21T00:58:29.995Z,56.93
2019-04-21T01:00:58.032Z,56.89
2019-04-21T01:03:26.436Z,57.26
2019-04-21T01:05:52.761Z,56.94
2019-04-21T01:08:13.213Z,55.57
2019-04-21T01:11:07.022Z,56.99
2019-04-21T01:13:54.130Z,57.20
2019-04-21T01:16:05.665Z,57.40
2019-04-21T01:18:32.558Z,56.24
2019-04-21T01:20:36.856Z,54.97
2019-04-21T01:23:04.239Z,55.01
2019-04-21T01:25:36.804Z,55.13
2019-04-21T01:28:15.131Z,55.15
2019-04-21T01:30:44.951Z,55.52
2019-04-21T01:35:56.541Z,56.57
2019-04-21T01:38:28.902Z,57.79
2019-04-21T01:40:52.943Z,58.39
2019-04-21T01:43:13.396Z,59.17
2019-04-21T01:45:45.902Z,59.37
2019-04-21T01:48:13.397Z,59.04
2019-04-21T01:50:34.795Z,59.46
2019-04-21T01:53:17.555Z,59.41
2019-04-21T01:55:52.849Z,59.17
2019-04-21T01:58:14.317Z,58.94
2019-04-21T02:00:45.147Z,59.46
2019-04-21T02:03:38.912Z,59.83
2019-04-21T02:05:51.982Z,60.29
2019-04-21T02:08:12.396Z,60.44
2019-04-21T02:10:49.101Z,61.06
2019-04-21T02:13:09.035Z,60.61
2019-04-21T02:15:46.472Z,60.57
2019-04-21T02:18:07.528Z,60.41
2019-04-21T02:20:25.903Z,60.42
2019-04-21T02:23:31.869Z,60.28
2019-04-21T02:25:31.886Z,60.55
2019-04-21T02:28:07.952Z,60.71
2019-04-21T02:30:50.370Z,60.88
2019-04-21T02:33:27.928Z,60.69
2019-04-21T02:35:41.814Z,60.87
2019-04-21T02:38:21.116Z,60.85
2019-04-21T02:40:47.802Z,60.84
2019-04-21T02:48:06.365Z,61.30
2019-04-21T02:55:17.966Z,61.25
2019-04-21T02:57:51.893Z,61.03
2019-04-21T03:00:23.787Z,61.26
2019-04-21T03:03:07.296Z,60.97
2019-04-21T03:05:48.848Z,61.23
2019-04-21T03:10:48.666Z,62.00
2019-04-21T03:13:07.639Z,62.48
2019-04-21T03:18:04.754Z,62.79
2019-04-21T03:23:00.161Z,62.83
2019-04-21T03:25:33.065Z,63.12
2019-04-21T03:27:56.964Z,63.01
2019-04-21T03:30:26.316Z,63.12
2019-04-21T03:35:48.241Z,63.21
2019-04-21T03:40:18.721Z,63.51
2019-04-21T03:42:48.033Z,63.62
2019-04-21T03:45:25.218Z,63.81
2019-04-21T03:47:43.153Z,63.85
2019-04-21T03:50:16.309Z,63.60
2019-04-21T03:52:45.915Z,63.60
2019-04-21T04:00:42.533Z,63.74
2019-04-21T04:03:42.159Z,63.80
2019-04-21T04:06:08.306Z,64.21
2019-04-21T04:08:39.619Z,64.60
2019-04-21T04:11:04.603Z,64.59
2019-04-21T04:13:29.572Z,64.62
2019-04-21T04:16:05.907Z,64.32
2019-04-21T04:18:29.940Z,64.33
2019-04-21T04:20:46.605Z,63.89
2019-04-21T04:23:35.586Z,63.94
2019-04-21T04:25:43.365Z,64.27
2019-04-21T04:28:28.880Z,64.28
2019-04-21T04:30:39.896Z,64.78
2019-04-21T04:33:15.046Z,65.38
2019-04-21T04:35:48.975Z,65.76
2019-04-21T04:38:06.184Z,66.04
2019-04-21T04:40:34.507Z,65.66
2019-04-21T04:48:09.179Z,65.67
2019-04-21T04:50:43.354Z,65.64
2019-04-21T04:53:07.452Z,65.74
2019-04-21T04:55:33.943Z,66.05
2019-04-21T05:02:58.221Z,66.11
2019-04-21T05:05:26.873Z,66.19
2019-04-21T05:10:22.330Z,65.42
2019-04-21T05:12:44.254Z,64.49
2019-04-21T05:15:14.819Z,65.11
2019-04-21T05:20:11.572Z,66.11
2019-04-21T05:22:47.670Z,64.27
2019-04-21T05:24:53.742Z,63.60
2019-04-21T05:27:29.515Z,63.44
2019-04-21T05:30:08.012Z,63.72
2019-04-21T05:32:41.645Z,64.25
2019-04-21T05:35:07.890Z,63.52
2019-04-21T05:37:47.646Z,63.29
2019-04-21T05:40:13.245Z,63.17
2019-04-21T05:42:43.820Z,62.93
2019-04-21T05:45:21.084Z,62.61
2019-04-21T05:47:50.106Z,62.92
2019-04-21T05:50:11.403Z,63.48
2019-04-21T05:52:47.642Z,64.00
2019-04-21T05:55:29.402Z,63.03
2019-04-21T05:57:50.601Z,62.88
2019-04-21T06:00:33.470Z,62.78
2019-04-21T06:02:53.451Z,62.85
2019-04-21T06:05:20.401Z,62.68
2019-04-21T06:07:41.442Z,62.40
2019-04-21T06:10:04.524Z,62.22
2019-04-21T06:12:40.322Z,61.44
2019-04-21T06:15:12.190Z,61.31
2019-04-21T06:17:34.866Z,60.74
2019-04-21T06:20:01.391Z,60.67
2019-04-21T06:22:27.117Z,59.96
2019-04-21T06:27:40.813Z,58.65
2019-04-21T06:29:54.477Z,58.50
2019-04-21T06:32:36.049Z,58.02
2019-04-21T06:35:09.079Z,58.00
2019-04-21T06:37:40.493Z,58.07
2019-04-21T06:40:02.881Z,57.28
2019-04-21T06:42:16.188Z,57.13
2019-04-21T06:44:54.533Z,56.26
2019-04-21T06:47:26.031Z,55.63
2019-04-21T06:49:41.207Z,54.77
2019-04-21T06:52:18.157Z,54.43
2019-04-21T06:54:42.251Z,54.33
2019-04-21T06:57:00.636Z,53.53
2019-04-21T06:59:37.192Z,53.08
2019-04-21T07:02:21.307Z,52.58
2019-04-21T07:04:31.247Z,51.46
2019-04-21T07:07:16.241Z,47.96
2019-04-21T07:09:57.445Z,48.86
2019-04-21T07:11:54.869Z,47.37
2019-04-21T07:14:28.030Z,45.71
2019-04-21T07:22:03.913Z,43.74
2019-04-21T07:24:21.730Z,43.33
2019-04-21T07:26:46.816Z,41.12
2019-04-21T07:29:14.237Z,40.06
2019-04-21T07:31:48.142Z,35.16
2019-04-21T07:34:29.007Z,35.16
2019-04-21T07:36:45.040Z,36.69
2019-04-21T07:39:03.231Z,36.69
2019-04-21T07:41:25.096Z,37.14
2019-04-21T07:43:57.263Z,35.62
2019-04-21T07:46:24.782Z,36.34
2019-04-21T07:48:59.882Z,36.11
2019-04-21T07:51:47.686Z,35.55
2019-04-21T07:54:18.695Z,33.42
2019-04-21T07:56:25.538Z,33.42
2019-04-21T07:59:06.956Z,32.69
2019-04-21T08:01:37.323Z,34.75
2019-04-21T08:04:08.445Z,33.98
2019-04-21T08:06:38.744Z,33.59
2019-04-21T08:09:00.692Z,33.80
2019-04-21T08:11:19.732Z,33.44
2019-04-21T08:13:55.078Z,33.34
2019-04-21T08:16:24.102Z,32.40
2019-04-21T08:18:52.179Z,34.61
2019-04-21T08:21:15.436Z,34.85
2019-04-21T08:23:43.415Z,33.92
2019-04-21T08:26:34.242Z,33.03
2019-04-21T08:31:09.968Z,32.85
2019-04-21T08:33:47.012Z,33.60
2019-04-21T08:36:19.363Z,33.89
2019-04-21T08:38:34.379Z,33.88
2019-04-21T08:41:01.588Z,33.05
2019-04-21T08:43:40.031Z,33.42
2019-04-21T08:46:13.570Z,31.83
2019-04-21T08:48:22.589Z,31.52
2019-04-21T08:50:53.945Z,33.76
2019-04-21T08:53:20.870Z,30.56
2019-04-21T08:56:07.481Z,32.32
2019-04-21T08:58:28.960Z,33.03
2019-04-21T09:01:02.441Z,34.33
2019-04-21T09:03:29.898Z,33.19
2019-04-21T09:06:00.087Z,33.20
2019-04-21T09:08:27.897Z,33.05
2019-04-21T09:10:56.041Z,32.27
2019-04-21T09:13:17.553Z,31.64
2019-04-21T09:15:47.963Z,32.34
2019-04-21T09:18:13.394Z,31.66
2019-04-21T09:20:48.753Z,32.12
2019-04-21T09:23:16.252Z,30.51
2019-04-21T09:25:44.682Z,31.31
2019-04-21T09:28:08.079Z,30.63
2019-04-21T09:30:17.555Z,32.76
2019-04-21T09:32:44.563Z,30.62
2019-04-21T09:35:14.772Z,29.00
2019-04-21T09:37:47.322Z,29.98
2019-04-21T09:40:06.920Z,30.09
2019-04-21T09:42:41.162Z,30.67
2019-04-21T09:45:04.460Z,29.79
2019-04-21T09:47:35.193Z,29.20
2019-04-21T09:49:56.557Z,29.36
2019-04-21T09:52:26.631Z,28.59
2019-04-21T09:54:58.601Z,28.60
2019-04-21T09:57:27.641Z,27.95
2019-04-21T09:59:53.858Z,26.86
2019-04-21T10:02:21.309Z,27.82
2019-04-21T10:04:42.496Z,29.31
2019-04-21T10:07:09.077Z,28.76
2019-04-21T10:09:37.685Z,27.90
2019-04-21T10:12:03.779Z,28.39
2019-04-21T10:14:30.852Z,27.31
2019-04-21T10:16:59.974Z,27.22
2019-04-21T10:19:27.498Z,27.09
2019-04-21T10:21:54.281Z,27.78
2019-04-21T10:24:20.276Z,26.83
2019-04-21T10:26:47.172Z,27.41
2019-04-21T10:29:20.294Z,26.38
2019-04-21T10:31:41.091Z,26.33
2019-04-21T10:34:07.414Z,26.50
2019-04-21T10:36:33.503Z,26.18
2019-04-21T10:39:00.800Z,26.89
2019-04-21T10:41:27.620Z,26.11
2019-04-21T10:43:53.697Z,26.15
2019-04-21T10:46:19.512Z,26.99
2019-04-21T10:48:46.345Z,26.77
2019-04-21T10:51:13.026Z,25.80
2019-04-21T10:53:41.001Z,24.92
2019-04-21T10:56:14.510Z,25.25
2019-04-21T10:58:36.482Z,25.08
2019-04-21T11:01:04.607Z,25.87
2019-04-21T11:03:38.332Z,26.23
2019-04-21T11:06:06.593Z,25.99
2019-04-21T11:08:37.905Z,22.51
2019-04-21T11:11:01.633Z,24.40
2019-04-21T11:13:28.379Z,23.62
2019-04-21T11:15:55.199Z,23.46
2019-04-21T11:18:21.941Z,23.95
2019-04-21T11:20:48.929Z,23.49
2019-04-21T11:23:14.813Z,23.50
2019-04-21T11:25:42.170Z,23.81
2019-04-21T11:28:09.015Z,22.77
2019-04-21T11:30:35.855Z,23.38
2019-04-21T11:33:01.681Z,23.42
2019-04-21T11:35:27.677Z,22.58
2019-04-21T11:38:04.494Z,21.83
2019-04-21T11:40:23.587Z,20.90
2019-04-21T11:42:49.960Z,20.25
2019-04-21T11:45:34.706Z,20.66
2019-04-21T11:48:12.443Z,19.16
2019-04-21T11:50:39.198Z,20.47
2019-04-21T11:53:05.363Z,22.18
2019-04-21T11:55:34.291Z,22.35
2019-04-21T11:58:00.326Z,23.19
2019-04-21T12:00:27.386Z,22.75
2019-04-21T12:02:53.715Z,22.10
2019-04-21T12:05:19.608Z,21.56
2019-04-21T12:07:45.513Z,21.83
2019-04-21T12:10:11.578Z,22.14
2019-04-21T12:12:37.607Z,24.94
2019-04-21T12:15:06.077Z,21.40
2019-04-21T12:17:32.103Z,20.91
2019-04-21T12:19:58.998Z,20.38
2019-04-21T12:22:28.939Z,23.89
2019-04-21T12:24:53.232Z,22.36
2019-04-21T12:27:20.366Z,23.13
2019-04-21T12:29:46.238Z,23.24
2019-04-21T12:32:30.465Z,22.54
2019-04-21T12:34:57.812Z,22.42
2019-04-21T12:37:24.709Z,20.03
2019-04-21T12:39:50.856Z,21.09
2019-04-21T12:42:16.791Z,19.17
2019-04-21T12:44:43.400Z,20.25
2019-04-21T12:47:10.062Z,20.97
2019-04-21T12:49:36.022Z,20.45
2019-04-21T12:52:02.056Z,20.68
2019-04-21T12:54:28.132Z,19.94
2019-04-21T12:56:53.961Z,19.10
2019-04-21T12:59:21.181Z,18.78
2019-04-21T13:01:48.547Z,19.93
2019-04-21T13:04:15.624Z,19.08
2019-04-21T13:06:41.810Z,20.71
2019-04-21T13:09:11.205Z,21.02
2019-04-21T13:11:35.541Z,19.68
2019-04-21T13:14:01.901Z,20.37
2019-04-21T13:16:27.783Z,20.24
2019-04-21T13:18:53.903Z,20.22
2019-04-21T13:21:22.318Z,20.86
2019-04-21T13:23:49.169Z,21.88
2019-04-21T13:26:27.143Z,21.58
2019-04-21T13:28:44.660Z,20.73
2019-04-21T13:31:11.833Z,20.71
2019-04-21T13:33:38.149Z,20.00
2019-04-21T13:36:04.942Z,18.82
2019-04-21T13:38:38.725Z,19.35
2019-04-21T13:41:17.569Z,19.68
2019-04-21T13:43:30.761Z,20.13
2019-04-21T13:45:57.537Z,19.80
2019-04-21T13:48:24.392Z,20.67
2019-04-21T13:50:51.209Z,19.75
2019-04-21T13:53:17.055Z,19.26
2019-04-21T13:55:44.629Z,18.72
2019-04-21T13:58:10.552Z,18.23
2019-04-21T14:00:37.900Z,19.30
2019-04-21T14:03:04.750Z,19.16
2019-04-21T14:05:30.778Z,19.87
2019-04-21T14:07:58.024Z,20.41
2019-04-21T14:10:24.013Z,21.34
2019-04-21T14:12:50.693Z,21.93
2019-04-21T14:15:18.087Z,21.47
2019-04-21T14:17:44.652Z,21.73
2019-04-21T14:20:10.943Z,20.85
2019-04-21T14:22:40.055Z,20.61
2019-04-21T14:25:07.855Z,20.55
2019-04-21T14:27:34.392Z,20.34
2019-04-21T14:30:00.612Z,20.39
2019-04-21T14:32:26.619Z,19.78
2019-04-21T14:34:54.016Z,20.05
2019-04-21T14:37:20.424Z,19.22
2019-04-21T14:39:52.792Z,19.40
2019-04-21T14:42:14.330Z,19.64
2019-04-21T14:44:40.809Z,21.21
2019-04-21T14:47:09.247Z,21.55
2019-04-21T14:49:42.877Z,22.29
2019-04-21T14:52:10.933Z,21.17
2019-04-21T14:54:51.023Z,20.02
2019-04-21T14:57:17.141Z,19.37
2019-04-21T14:59:45.201Z,19.12
2019-04-21T15:02:11.747Z,18.45
2019-04-21T15:04:37.751Z,19.02
2019-04-21T15:07:07.647Z,18.71
2019-04-21T15:09:37.051Z,19.59
2019-04-21T15:12:02.375Z,18.52
2019-04-21T15:14:29.777Z,18.62
2019-04-21T15:16:56.815Z,18.76
2019-04-21T15:19:22.712Z,19.34
2019-04-21T15:21:52.388Z,19.25
2019-04-21T15:24:18.430Z,19.41
2019-04-21T15:26:44.530Z,19.43
2019-04-21T15:29:10.785Z,18.97
2019-04-21T15:31:39.601Z,18.86
2019-04-21T15:34:05.380Z,18.89
2019-04-21T15:36:33.281Z,18.57
2019-04-21T15:38:59.078Z,17.78
2019-04-21T15:41:25.252Z,17.59
2019-04-21T15:43:51.055Z,17.54
2019-04-21T15:46:16.879Z,17.91
2019-04-21T15:48:48.573Z,18.48
2019-04-21T15:51:15.815Z,18.70
2019-04-21T15:53:43.975Z,18.68
2019-04-21T15:56:15.264Z,19.07
2019-04-21T15:58:52.654Z,20.31
2019-04-21T16:01:23.198Z,19.98
2019-04-21T16:03:49.055Z,18.87
2019-04-21T16:06:14.777Z,19.19
2019-04-21T16:08:40.858Z,20.08
2019-04-21T16:11:09.037Z,19.83
2019-04-21T16:13:34.622Z,19.48
2019-04-21T16:16:02.116Z,19.42
2019-04-21T16:18:28.116Z,19.49
2019-04-21T16:20:53.906Z,19.48
2019-04-21T16:23:20.254Z,19.15
2019-04-21T16:25:48.594Z,21.13
2019-04-21T16:28:15.448Z,20.54
2019-04-21T16:30:42.532Z,20.28
2019-04-21T16:33:10.087Z,19.82
2019-04-21T16:35:37.758Z,19.77
2019-04-21T16:38:04.147Z,19.97
2019-04-21T16:40:41.366Z,21.05
2019-04-21T16:42:58.331Z,20.02
2019-04-21T16:45:25.265Z,20.02
2019-04-21T16:47:54.046Z,19.16
2019-04-21T16:50:21.550Z,20.68
2019-04-21T16:52:52.273Z,20.74
2019-04-21T16:55:39.296Z,21.37
2019-04-21T16:58:12.664Z,21.92
2019-04-21T17:00:44.088Z,21.75
2019-04-21T17:03:04.533Z,21.60
2019-04-21T17:05:30.320Z,21.96
2019-04-21T17:07:57.681Z,23.25
2019-04-21T17:10:24.557Z,23.59
2019-04-21T17:12:51.310Z,24.14
2019-04-21T17:15:33.786Z,24.03
2019-04-21T17:18:05.968Z,24.34
2019-04-21T17:20:27.828Z,24.25
2019-04-21T17:22:41.736Z,24.34
2019-04-21T17:25:08.700Z,24.66
2019-04-21T17:27:36.539Z,24.28
2019-04-21T17:30:06.392Z,24.45
2019-04-21T17:32:37.206Z,24.46
2019-04-21T17:35:01.834Z,24.42
2019-04-21T17:37:29.197Z,24.06
2019-04-21T17:39:56.878Z,24.53
2019-04-21T17:42:30.053Z,24.75
2019-04-21T17:44:51.113Z,25.29
2019-04-21T17:47:29.938Z,25.22
2019-04-21T17:49:49.050Z,26.81
2019-04-21T17:52:19.807Z,28.09
2019-04-21T17:54:50.609Z,28.65
2019-04-21T17:57:36.838Z,29.04
2019-04-21T18:00:25.860Z,29.54
2019-04-21T18:02:35.089Z,29.55
2019-04-21T18:05:07.194Z,29.78
2019-04-21T18:07:31.457Z,29.86
2019-04-21T18:12:26.378Z,30.57
2019-04-21T18:14:50.325Z,30.94
2019-04-21T18:17:06.537Z,31.41
2019-04-21T18:19:36.825Z,31.15
2019-04-21T18:22:06.992Z,31.08
2019-04-21T18:24:47.198Z,30.44
2019-04-21T18:27:07.052Z,30.17
2019-04-21T18:29:31.672Z,30.84
2019-04-21T18:31:59.275Z,30.83
2019-04-21T18:34:42.818Z,30.41
2019-04-21T18:37:18.621Z,30.89
2019-04-21T18:39:52.726Z,30.64
2019-04-21T18:42:26.356Z,30.43
2019-04-21T18:45:34.465Z,30.59
2019-04-21T18:47:58.068Z,30.72
2019-04-21T18:50:31.571Z,30.64
2019-04-21T18:53:04.838Z,30.75
2019-04-21T18:55:32.292Z,30.92
2019-04-21T18:57:54.965Z,30.59
2019-04-21T19:00:26.436Z,30.64
2019-04-21T19:02:51.740Z,30.97
2019-04-21T19:05:21.182Z,30.75
2019-04-21T19:08:05.704Z,30.98
2019-04-21T19:10:35.271Z,30.96
2019-04-21T19:15:20.382Z,31.28
2019-04-21T19:18:28.130Z,31.32
2019-04-21T19:20:25.566Z,31.02
2019-04-21T19:22:47.251Z,31.10
2019-04-21T19:25:20.887Z,31.50
2019-04-21T19:27:51.640Z,31.50
2019-04-21T19:32:45.513Z,31.51
2019-04-21T19:34:59.673Z,31.56
2019-04-21T19:37:27.004Z,31.51
2019-04-21T19:40:05.413Z,31.91
2019-04-21T19:42:32.033Z,31.51
2019-04-21T19:45:06.090Z,31.51
2019-04-21T19:47:41.699Z,31.34
2019-04-21T19:50:06.185Z,31.19
2019-04-21T19:52:26.617Z,31.19
2019-04-21T19:54:44.882Z,31.25
2019-04-21T19:57:09.041Z,31.08
2019-04-21T19:59:42.286Z,31.08
2019-04-21T20:02:04.602Z,30.64
2019-04-21T20:04:38.545Z,30.74
2019-04-21T20:07:10.403Z,31.19
2019-04-21T20:09:43.227Z,31.19
2019-04-21T20:12:09.502Z,30.89
2019-04-21T20:14:59.664Z,31.10
2019-04-21T20:17:05.884Z,31.33
2019-04-21T20:19:21.025Z,31.64
2019-04-21T20:21:47.166Z,31.72
2019-04-21T20:24:18.537Z,31.84
2019-04-21T20:26:43.815Z,31.77
2019-04-21T20:29:31.249Z,31.83
2019-04-21T20:31:53.031Z,31.83
2019-04-21T20:34:26.640Z,31.94
2019-04-21T20:36:59.246Z,32.20
2019-04-21T20:39:05.928Z,32.10
2019-04-21T20:41:40.911Z,32.46
2019-04-21T20:44:11.940Z,32.54
2019-04-21T20:46:39.448Z,32.54
2019-04-21T20:49:06.931Z,31.95
2019-04-21T20:51:37.976Z,32.49
2019-04-21T20:54:02.956Z,32.58
2019-04-21T20:56:26.891Z,34.40
2019-04-21T20:58:59.989Z,36.62
2019-04-21T21:01:34.791Z,37.10
2019-04-21T21:03:53.039Z,37.05
2019-04-21T21:06:21.785Z,37.19
2019-04-21T21:08:52.715Z,37.12
2019-04-21T21:11:15.124Z,37.04
2019-04-21T21:13:47.795Z,37.32
2019-04-21T21:21:11.171Z,36.45
2019-04-21T21:23:42.748Z,36.71
2019-04-21T21:26:11.453Z,37.07
2019-04-21T21:28:36.532Z,37.57
2019-04-21T21:31:04.170Z,39.38
2019-04-21T21:33:37.265Z,39.98
2019-04-21T21:36:03.173Z,40.59
2019-04-21T21:38:28.464Z,42.04
2019-04-21T21:40:51.505Z,43.05
2019-04-21T21:43:08.254Z,43.85
2019-04-21T21:45:40.083Z,44.20
2019-04-21T21:48:20.902Z,43.96
2019-04-21T21:50:42.092Z,43.73
2019-04-21T21:53:04.204Z,42.94
2019-04-21T21:55:25.610Z,41.76
2019-04-21T21:57:55.394Z,40.42
2019-04-21T22:00:23.950Z,38.17
2019-04-21T22:02:53.498Z,39.75
2019-04-21T22:05:24.355Z,39.55
2019-04-21T22:07:46.883Z,40.06
2019-04-21T22:10:13.167Z,41.88
2019-04-21T22:12:48.534Z,44.15
2019-04-21T22:15:13.903Z,44.40
2019-04-21T22:17:49.649Z,45.03
2019-04-21T22:20:27.220Z,45.85
2019-04-21T22:22:44.821Z,46.39
2019-04-21T22:25:11.983Z,46.85
2019-04-21T22:27:32.816Z,47.52
2019-04-21T22:30:03.201Z,47.55
2019-04-21T22:32:29.069Z,47.71
2019-04-21T22:34:59.904Z,48.25
2019-04-21T22:37:39.243Z,48.59
2019-04-21T22:40:04.455Z,48.63
2019-04-21T22:42:26.591Z,48.76
2019-04-21T22:44:46.625Z,48.69
2019-04-21T22:47:18.391Z,48.53
2019-04-21T22:49:40.959Z,48.14
2019-04-21T22:52:11.293Z,47.42
2019-04-21T22:54:40.828Z,47.16
2019-04-21T22:57:11.525Z,48.64
2019-04-21T22:59:32.426Z,49.95
2019-04-21T23:01:59.425Z,49.74
2019-04-21T23:04:32.894Z,49.92
2019-04-21T23:06:59.331Z,49.91
2019-04-21T23:09:20.733Z,50.02
2019-04-21T23:11:50.729Z,50.12
2019-04-21T23:14:16.853Z,50.75
2019-04-21T23:16:45.594Z,50.58
2019-04-21T23:19:24.087Z,51.01
2019-04-21T23:22:01.007Z,51.06
2019-04-21T23:24:33.096Z,51.40
2019-04-21T23:26:49.084Z,51.38
2019-04-21T23:29:17.374Z,51.26
2019-04-21T23:31:51.807Z,51.69
2019-04-21T23:33:58.068Z,52.14
2019-04-21T23:36:28.202Z,52.34
2019-04-21T23:38:54.768Z,52.61
2019-04-21T23:41:19.704Z,52.92
2019-04-21T23:43:53.165Z,53.41
2019-04-21T23:46:20.261Z,53.34
2019-04-21T23:48:57.855Z,52.83
2019-04-21T23:51:21.803Z,53.22
2019-04-21T23:53:37.498Z,53.01
2019-04-21T23:56:03.560Z,52.46
2019-04-21T23:58:31.744Z,51.26
